sensor_id;sensor_type;location;lat;lon;timestamp;P1;durP1;ratioP1;P2;durP2;ratioP2
3267;SDS011;1646;52.450;13.326;2024-01-30T00:01:11;12.90;;;5.73;;
3267;SDS011;1646;52.450;13.326;2024-01-30T00:06:10;16.57;;;6.93;;
3267;SDS011;1646;52.450;13.326;2024-01-30T00:11:09;12.90;;;6.57;;
3267;SDS011;1646;52.450;13.326;2024-01-30T00:16:08;14.10;;;5.53;;
3267;SDS011;1646;52.450;13.326;2024-01-30T00:21:07;10.90;;;6.23;;
3267;SDS011;1646;52.450;13.326;2024-01-30T00:26:06;12.90;;;6.20;;
3267;SDS011;1646;52.450;13.326;2024-01-30T00:31:04;11.13;;;5.70;;
3267;SDS011;1646;52.450;13.326;2024-01-30T00:36:02;10.37;;;5.67;;
3267;SDS011;1646;52.450;13.326;2024-01-30T00:41:02;14.80;;;6.10;;
3267;SDS011;1646;52.450;13.326;2024-01-30T00:46:01;12.03;;;6.27;;
3267;SDS011;1646;52.450;13.326;2024-01-30T00:51:00;13.73;;;6.07;;
3267;SDS011;1646;52.450;13.326;2024-01-30T00:55:58;18.10;;;6.43;;
3267;SDS011;1646;52.450;13.326;2024-01-30T01:00:58;13.13;;;5.67;;
3267;SDS011;1646;52.450;13.326;2024-01-30T01:05:56;14.63;;;6.53;;
3267;SDS011;1646;52.450;13.326;2024-01-30T01:10:55;10.30;;;5.80;;
3267;SDS011;1646;52.450;13.326;2024-01-30T01:15:53;11.13;;;6.00;;
3267;SDS011;1646;52.450;13.326;2024-01-30T01:20:53;14.37;;;6.83;;
3267;SDS011;1646;52.450;13.326;2024-01-30T01:25:51;12.30;;;6.20;;
3267;SDS011;1646;52.450;13.326;2024-01-30T01:30:51;12.33;;;6.23;;
3267;SDS011;1646;52.450;13.326;2024-01-30T01:35:49;11.03;;;5.80;;
3267;SDS011;1646;52.450;13.326;2024-01-30T01:40:48;14.80;;;7.33;;
3267;SDS011;1646;52.450;13.326;2024-01-30T01:45:47;14.17;;;6.60;;
3267;SDS011;1646;52.450;13.326;2024-01-30T01:50:46;12.83;;;6.40;;
3267;SDS011;1646;52.450;13.326;2024-01-30T01:55:45;12.57;;;6.90;;
3267;SDS011;1646;52.450;13.326;2024-01-30T02:00:45;13.40;;;6.20;;
3267;SDS011;1646;52.450;13.326;2024-01-30T02:05:44;13.23;;;5.53;;
3267;SDS011;1646;52.450;13.326;2024-01-30T02:10:43;12.50;;;5.93;;
3267;SDS011;1646;52.450;13.326;2024-01-30T02:15:41;12.10;;;6.53;;
3267;SDS011;1646;52.450;13.326;2024-01-30T02:20:41;14.80;;;7.67;;
3267;SDS011;1646;52.450;13.326;2024-01-30T02:25:42;15.53;;;6.20;;
3267;SDS011;1646;52.450;13.326;2024-01-30T02:30:42;12.23;;;6.90;;
3267;SDS011;1646;52.450;13.326;2024-01-30T02:35:41;10.70;;;6.70;;
3267;SDS011;1646;52.450;13.326;2024-01-30T02:40:39;16.77;;;6.20;;
3267;SDS011;1646;52.450;13.326;2024-01-30T02:45:39;11.43;;;5.83;;
3267;SDS011;1646;52.450;13.326;2024-01-30T02:50:37;10.07;;;5.27;;
3267;SDS011;1646;52.450;13.326;2024-01-30T02:55:35;10.97;;;6.20;;
3267;SDS011;1646;52.450;13.326;2024-01-30T03:00:33;14.97;;;6.93;;
3267;SDS011;1646;52.450;13.326;2024-01-30T03:05:33;14.37;;;6.50;;
3267;SDS011;1646;52.450;13.326;2024-01-30T03:10:32;12.00;;;6.20;;
3267;SDS011;1646;52.450;13.326;2024-01-30T03:15:30;14.53;;;6.40;;
3267;SDS011;1646;52.450;13.326;2024-01-30T03:20:29;13.00;;;6.43;;
3267;SDS011;1646;52.450;13.326;2024-01-30T03:25:29;12.73;;;6.20;;
3267;SDS011;1646;52.450;13.326;2024-01-30T03:30:27;14.23;;;6.90;;
3267;SDS011;1646;52.450;13.326;2024-01-30T03:35:25;14.70;;;7.10;;
3267;SDS011;1646;52.450;13.326;2024-01-30T03:40:24;13.50;;;6.73;;
3267;SDS011;1646;52.450;13.326;2024-01-30T03:45:24;17.77;;;8.00;;
3267;SDS011;1646;52.450;13.326;2024-01-30T03:50:22;14.37;;;6.80;;
3267;SDS011;1646;52.450;13.326;2024-01-30T03:55:20;13.73;;;6.87;;
3267;SDS011;1646;52.450;13.326;2024-01-30T04:00:19;15.80;;;7.13;;
3267;SDS011;1646;52.450;13.326;2024-01-30T04:05:19;13.43;;;6.53;;
3267;SDS011;1646;52.450;13.326;2024-01-30T04:10:17;16.30;;;7.30;;
3267;SDS011;1646;52.450;13.326;2024-01-30T04:15:16;15.07;;;7.47;;
3267;SDS011;1646;52.450;13.326;2024-01-30T04:20:15;11.97;;;6.00;;
3267;SDS011;1646;52.450;13.326;2024-01-30T04:25:15;12.53;;;6.90;;
3267;SDS011;1646;52.450;13.326;2024-01-30T04:30:13;14.13;;;6.80;;
3267;SDS011;1646;52.450;13.326;2024-01-30T04:35:12;12.40;;;6.73;;
3267;SDS011;1646;52.450;13.326;2024-01-30T04:40:11;14.30;;;7.33;;
3267;SDS011;1646;52.450;13.326;2024-01-30T04:45:11;16.50;;;7.20;;
3267;SDS011;1646;52.450;13.326;2024-01-30T04:50:10;11.83;;;7.20;;
3267;SDS011;1646;52.450;13.326;2024-01-30T04:55:08;13.33;;;7.00;;
3267;SDS011;1646;52.450;13.326;2024-01-30T05:00:07;14.33;;;6.83;;
3267;SDS011;1646;52.450;13.326;2024-01-30T05:05:07;11.80;;;6.90;;
3267;SDS011;1646;52.450;13.326;2024-01-30T05:10:06;13.03;;;7.03;;
3267;SDS011;1646;52.450;13.326;2024-01-30T05:15:05;13.60;;;6.73;;
3267;SDS011;1646;52.450;13.326;2024-01-30T05:20:04;12.33;;;7.10;;
3267;SDS011;1646;52.450;13.326;2024-01-30T05:25:06;16.93;;;7.10;;
3267;SDS011;1646;52.450;13.326;2024-01-30T05:30:05;13.80;;;6.90;;
3267;SDS011;1646;52.450;13.326;2024-01-30T05:35:04;11.80;;;7.10;;
3267;SDS011;1646;52.450;13.326;2024-01-30T05:40:06;9.33;;;5.60;;
3267;SDS011;1646;52.450;13.326;2024-01-30T05:45:05;11.37;;;6.90;;
3267;SDS011;1646;52.450;13.326;2024-01-30T05:50:05;13.30;;;6.07;;
3267;SDS011;1646;52.450;13.326;2024-01-30T05:55:06;16.13;;;6.63;;
3267;SDS011;1646;52.450;13.326;2024-01-30T06:00:05;15.83;;;6.80;;
3267;SDS011;1646;52.450;13.326;2024-01-30T06:05:05;13.10;;;6.60;;
3267;SDS011;1646;52.450;13.326;2024-01-30T06:10:06;14.90;;;7.37;;
3267;SDS011;1646;52.450;13.326;2024-01-30T06:15:05;14.47;;;8.00;;
3267;SDS011;1646;52.450;13.326;2024-01-30T06:20:05;17.13;;;7.20;;
3267;SDS011;1646;52.450;13.326;2024-01-30T06:25:05;14.30;;;7.43;;
3267;SDS011;1646;52.450;13.326;2024-01-30T06:30:05;12.93;;;7.13;;
3267;SDS011;1646;52.450;13.326;2024-01-30T06:35:04;14.30;;;7.97;;
3267;SDS011;1646;52.450;13.326;2024-01-30T06:40:03;14.33;;;7.27;;
3267;SDS011;1646;52.450;13.326;2024-01-30T06:45:05;12.03;;;7.40;;
3267;SDS011;1646;52.450;13.326;2024-01-30T06:50:04;14.80;;;7.30;;
3267;SDS011;1646;52.450;13.326;2024-01-30T06:55:05;16.23;;;8.33;;
3267;SDS011;1646;52.450;13.326;2024-01-30T07:00:04;16.07;;;7.70;;
3267;SDS011;1646;52.450;13.326;2024-01-30T07:05:04;15.40;;;7.40;;
3267;SDS011;1646;52.450;13.326;2024-01-30T07:10:02;20.90;;;9.33;;
3267;SDS011;1646;52.450;13.326;2024-01-30T07:15:03;15.77;;;7.93;;
3267;SDS011;1646;52.450;13.326;2024-01-30T07:20:05;16.50;;;7.90;;
3267;SDS011;1646;52.450;13.326;2024-01-30T07:25:07;17.77;;;7.97;;
3267;SDS011;1646;52.450;13.326;2024-01-30T07:30:08;20.40;;;7.90;;
3267;SDS011;1646;52.450;13.326;2024-01-30T07:35:06;20.03;;;7.90;;
3267;SDS011;1646;52.450;13.326;2024-01-30T07:40:06;15.10;;;8.20;;
3267;SDS011;1646;52.450;13.326;2024-01-30T07:45:05;16.60;;;7.60;;
3267;SDS011;1646;52.450;13.326;2024-01-30T07:50:06;20.50;;;8.50;;
3267;SDS011;1646;52.450;13.326;2024-01-30T07:55:05;14.13;;;7.90;;
3267;SDS011;1646;52.450;13.326;2024-01-30T08:00:05;14.07;;;7.00;;
3267;SDS011;1646;52.450;13.326;2024-01-30T08:05:06;16.17;;;7.83;;
3267;SDS011;1646;52.450;13.326;2024-01-30T08:10:07;17.57;;;8.17;;
3267;SDS011;1646;52.450;13.326;2024-01-30T08:15:07;12.53;;;6.93;;
3267;SDS011;1646;52.450;13.326;2024-01-30T08:20:08;18.73;;;8.67;;
3267;SDS011;1646;52.450;13.326;2024-01-30T08:25:09;20.97;;;8.70;;
3267;SDS011;1646;52.450;13.326;2024-01-30T08:30:08;17.83;;;8.67;;
3267;SDS011;1646;52.450;13.326;2024-01-30T08:35:08;16.40;;;7.80;;
3267;SDS011;1646;52.450;13.326;2024-01-30T08:40:10;16.93;;;7.10;;
3267;SDS011;1646;52.450;13.326;2024-01-30T08:45:09;13.37;;;7.77;;
3267;SDS011;1646;52.450;13.326;2024-01-30T08:50:09;14.33;;;7.50;;
3267;SDS011;1646;52.450;13.326;2024-01-30T08:55:07;15.17;;;8.00;;
3267;SDS011;1646;52.450;13.326;2024-01-30T09:00:06;15.23;;;7.33;;
3267;SDS011;1646;52.450;13.326;2024-01-30T09:05:07;14.23;;;7.00;;
3267;SDS011;1646;52.450;13.326;2024-01-30T09:10:07;16.83;;;7.77;;
3267;SDS011;1646;52.450;13.326;2024-01-30T09:15:09;17.83;;;9.20;;
3267;SDS011;1646;52.450;13.326;2024-01-30T09:20:10;14.40;;;7.90;;
3267;SDS011;1646;52.450;13.326;2024-01-30T09:25:08;14.27;;;7.50;;
3267;SDS011;1646;52.450;13.326;2024-01-30T09:30:07;15.80;;;7.63;;
3267;SDS011;1646;52.450;13.326;2024-01-30T09:35:06;14.30;;;7.00;;
3267;SDS011;1646;52.450;13.326;2024-01-30T09:40:08;12.27;;;7.07;;
3267;SDS011;1646;52.450;13.326;2024-01-30T09:45:07;17.93;;;7.80;;
3267;SDS011;1646;52.450;13.326;2024-01-30T09:50:06;11.97;;;6.93;;
3267;SDS011;1646;52.450;13.326;2024-01-30T09:55:06;13.20;;;7.33;;
3267;SDS011;1646;52.450;13.326;2024-01-30T10:00:06;16.27;;;6.80;;
3267;SDS011;1646;52.450;13.326;2024-01-30T10:05:08;14.13;;;6.17;;
3267;SDS011;1646;52.450;13.326;2024-01-30T10:10:08;11.27;;;6.20;;
3267;SDS011;1646;52.450;13.326;2024-01-30T10:15:07;9.90;;;6.30;;
3267;SDS011;1646;52.450;13.326;2024-01-30T10:20:06;15.00;;;6.30;;
3267;SDS011;1646;52.450;13.326;2024-01-30T10:25:05;12.70;;;6.50;;
3267;SDS011;1646;52.450;13.326;2024-01-30T10:30:07;10.83;;;6.37;;
3267;SDS011;1646;52.450;13.326;2024-01-30T10:35:06;10.47;;;6.20;;
3267;SDS011;1646;52.450;13.326;2024-01-30T10:40:06;11.40;;;6.17;;
3267;SDS011;1646;52.450;13.326;2024-01-30T10:45:08;12.40;;;6.83;;
3267;SDS011;1646;52.450;13.326;2024-01-30T10:50:09;15.47;;;6.77;;
3267;SDS011;1646;52.450;13.326;2024-01-30T10:55:09;12.40;;;5.93;;
3267;SDS011;1646;52.450;13.326;2024-01-30T11:00:10;16.33;;;6.70;;
3267;SDS011;1646;52.450;13.326;2024-01-30T11:05:10;11.93;;;5.77;;
3267;SDS011;1646;52.450;13.326;2024-01-30T11:10:08;10.60;;;6.33;;
3267;SDS011;1646;52.450;13.326;2024-01-30T11:15:12;11.90;;;6.83;;
3267;SDS011;1646;52.450;13.326;2024-01-30T11:20:11;10.73;;;5.97;;
3267;SDS011;1646;52.450;13.326;2024-01-30T11:25:12;10.53;;;6.20;;
3267;SDS011;1646;52.450;13.326;2024-01-30T11:30:20;13.73;;;6.63;;
3267;SDS011;1646;52.450;13.326;2024-01-30T11:35:20;13.07;;;6.30;;
3267;SDS011;1646;52.450;13.326;2024-01-30T11:40:19;12.93;;;6.87;;
3267;SDS011;1646;52.450;13.326;2024-01-30T11:45:18;10.73;;;6.50;;
3267;SDS011;1646;52.450;13.326;2024-01-30T11:50:17;10.50;;;6.80;;
3267;SDS011;1646;52.450;13.326;2024-01-30T11:55:16;29.33;;;10.30;;
3267;SDS011;1646;52.450;13.326;2024-01-30T12:00:15;9.87;;;6.40;;
3267;SDS011;1646;52.450;13.326;2024-01-30T12:05:16;15.10;;;7.27;;
3267;SDS011;1646;52.450;13.326;2024-01-30T12:10:16;11.40;;;6.67;;
3267;SDS011;1646;52.450;13.326;2024-01-30T12:15:15;11.20;;;6.60;;
3267;SDS011;1646;52.450;13.326;2024-01-30T12:20:15;12.63;;;6.47;;
3267;SDS011;1646;52.450;13.326;2024-01-30T12:25:20;14.17;;;6.90;;
3267;SDS011;1646;52.450;13.326;2024-01-30T12:30:20;14.77;;;7.30;;
3267;SDS011;1646;52.450;13.326;2024-01-30T12:35:20;12.63;;;7.33;;
3267;SDS011;1646;52.450;13.326;2024-01-30T12:40:19;18.03;;;7.00;;
3267;SDS011;1646;52.450;13.326;2024-01-30T12:45:17;17.80;;;7.87;;
3267;SDS011;1646;52.450;13.326;2024-01-30T12:50:20;14.57;;;7.37;;
3267;SDS011;1646;52.450;13.326;2024-01-30T12:55:19;16.53;;;8.23;;
3267;SDS011;1646;52.450;13.326;2024-01-30T13:00:17;11.57;;;6.57;;
3267;SDS011;1646;52.450;13.326;2024-01-30T13:05:15;12.23;;;7.30;;
3267;SDS011;1646;52.450;13.326;2024-01-30T13:10:16;16.03;;;8.03;;
3267;SDS011;1646;52.450;13.326;2024-01-30T13:15:14;16.50;;;6.93;;
3267;SDS011;1646;52.450;13.326;2024-01-30T13:20:13;12.90;;;6.40;;
3267;SDS011;1646;52.450;13.326;2024-01-30T13:25:13;12.20;;;7.00;;
3267;SDS011;1646;52.450;13.326;2024-01-30T13:30:13;16.80;;;7.73;;
3267;SDS011;1646;52.450;13.326;2024-01-30T13:35:12;9.87;;;6.27;;
3267;SDS011;1646;52.450;13.326;2024-01-30T13:40:11;9.20;;;6.03;;
3267;SDS011;1646;52.450;13.326;2024-01-30T13:45:12;16.50;;;7.63;;
3267;SDS011;1646;52.450;13.326;2024-01-30T13:50:11;13.40;;;6.43;;
3267;SDS011;1646;52.450;13.326;2024-01-30T13:55:12;12.00;;;7.30;;
3267;SDS011;1646;52.450;13.326;2024-01-30T14:00:11;16.20;;;6.70;;
3267;SDS011;1646;52.450;13.326;2024-01-30T14:05:13;13.47;;;7.07;;
3267;SDS011;1646;52.450;13.326;2024-01-30T14:10:12;10.10;;;6.57;;
3267;SDS011;1646;52.450;13.326;2024-01-30T14:15:12;14.17;;;7.57;;
3267;SDS011;1646;52.450;13.326;2024-01-30T14:20:24;14.63;;;6.00;;
3267;SDS011;1646;52.450;13.326;2024-01-30T14:25:22;13.13;;;6.60;;
3267;SDS011;1646;52.450;13.326;2024-01-30T14:30:22;11.10;;;6.60;;
3267;SDS011;1646;52.450;13.326;2024-01-30T14:35:20;17.23;;;6.87;;
3267;SDS011;1646;52.450;13.326;2024-01-30T14:40:18;17.43;;;6.70;;
3267;SDS011;1646;52.450;13.326;2024-01-30T14:45:17;18.70;;;6.60;;
3267;SDS011;1646;52.450;13.326;2024-01-30T14:50:34;14.40;;;7.30;;
3267;SDS011;1646;52.450;13.326;2024-01-30T14:55:33;11.70;;;5.93;;
3267;SDS011;1646;52.450;13.326;2024-01-30T15:00:31;15.57;;;6.80;;
3267;SDS011;1646;52.450;13.326;2024-01-30T15:05:29;11.60;;;6.60;;
3267;SDS011;1646;52.450;13.326;2024-01-30T15:10:29;13.10;;;6.60;;
3267;SDS011;1646;52.450;13.326;2024-01-30T15:15:27;14.83;;;7.10;;
3267;SDS011;1646;52.450;13.326;2024-01-30T15:20:27;22.93;;;7.30;;
3267;SDS011;1646;52.450;13.326;2024-01-30T15:25:25;14.73;;;7.47;;
3267;SDS011;1646;52.450;13.326;2024-01-30T15:30:27;21.87;;;9.60;;
3267;SDS011;1646;52.450;13.326;2024-01-30T15:35:26;23.83;;;8.83;;
3267;SDS011;1646;52.450;13.326;2024-01-30T15:40:26;12.83;;;6.83;;
3267;SDS011;1646;52.450;13.326;2024-01-30T15:45:26;10.37;;;6.40;;
3267;SDS011;1646;52.450;13.326;2024-01-30T15:50:25;11.20;;;6.90;;
3267;SDS011;1646;52.450;13.326;2024-01-30T15:55:23;16.17;;;7.23;;
3267;SDS011;1646;52.450;13.326;2024-01-30T16:00:21;21.07;;;7.60;;
3267;SDS011;1646;52.450;13.326;2024-01-30T16:05:22;14.93;;;7.57;;
3267;SDS011;1646;52.450;13.326;2024-01-30T16:10:20;13.27;;;7.77;;
3267;SDS011;1646;52.450;13.326;2024-01-30T16:15:18;18.00;;;7.60;;
3267;SDS011;1646;52.450;13.326;2024-01-30T16:20:17;15.27;;;7.37;;
3267;SDS011;1646;52.450;13.326;2024-01-30T16:25:18;17.37;;;8.13;;
3267;SDS011;1646;52.450;13.326;2024-01-30T16:30:17;15.43;;;7.47;;
3267;SDS011;1646;52.450;13.326;2024-01-30T16:35:16;21.43;;;7.70;;
3267;SDS011;1646;52.450;13.326;2024-01-30T16:40:14;15.30;;;7.30;;
3267;SDS011;1646;52.450;13.326;2024-01-30T16:45:14;15.53;;;8.70;;
3267;SDS011;1646;52.450;13.326;2024-01-30T16:50:12;15.53;;;8.83;;
3267;SDS011;1646;52.450;13.326;2024-01-30T16:55:11;17.00;;;8.37;;
3267;SDS011;1646;52.450;13.326;2024-01-30T17:00:10;18.60;;;9.23;;
3267;SDS011;1646;52.450;13.326;2024-01-30T17:05:10;16.17;;;8.50;;
3267;SDS011;1646;52.450;13.326;2024-01-30T17:10:22;19.73;;;8.97;;
3267;SDS011;1646;52.450;13.326;2024-01-30T17:15:20;12.70;;;8.00;;
3267;SDS011;1646;52.450;13.326;2024-01-30T17:20:20;16.60;;;8.40;;
3267;SDS011;1646;52.450;13.326;2024-01-30T17:25:19;16.30;;;8.20;;
3267;SDS011;1646;52.450;13.326;2024-01-30T17:30:20;13.47;;;8.37;;
3267;SDS011;1646;52.450;13.326;2024-01-30T17:35:19;17.00;;;8.80;;
3267;SDS011;1646;52.450;13.326;2024-01-30T17:40:18;16.70;;;8.97;;
3267;SDS011;1646;52.450;13.326;2024-01-30T17:45:16;22.47;;;7.63;;
3267;SDS011;1646;52.450;13.326;2024-01-30T17:50:17;13.80;;;7.67;;
3267;SDS011;1646;52.450;13.326;2024-01-30T17:55:17;15.83;;;8.17;;
3267;SDS011;1646;52.450;13.326;2024-01-30T18:00:16;14.50;;;8.60;;
3267;SDS011;1646;52.450;13.326;2024-01-30T18:05:15;16.13;;;9.00;;
3267;SDS011;1646;52.450;13.326;2024-01-30T18:10:14;15.33;;;9.60;;
3267;SDS011;1646;52.450;13.326;2024-01-30T18:15:17;14.60;;;8.97;;
3267;SDS011;1646;52.450;13.326;2024-01-30T18:20:15;17.43;;;8.50;;
3267;SDS011;1646;52.450;13.326;2024-01-30T18:25:14;15.47;;;8.33;;
3267;SDS011;1646;52.450;13.326;2024-01-30T18:30:12;15.73;;;8.73;;
3267;SDS011;1646;52.450;13.326;2024-01-30T18:35:12;14.33;;;8.87;;
3267;SDS011;1646;52.450;13.326;2024-01-30T18:40:11;14.83;;;9.10;;
3267;SDS011;1646;52.450;13.326;2024-01-30T18:45:13;18.93;;;8.83;;
3267;SDS011;1646;52.450;13.326;2024-01-30T18:50:13;15.40;;;8.50;;
3267;SDS011;1646;52.450;13.326;2024-01-30T18:55:12;14.83;;;8.40;;
3267;SDS011;1646;52.450;13.326;2024-01-30T19:00:11;12.33;;;7.60;;
3267;SDS011;1646;52.450;13.326;2024-01-30T19:05:10;16.10;;;8.97;;
3267;SDS011;1646;52.450;13.326;2024-01-30T19:10:10;19.80;;;9.77;;
3267;SDS011;1646;52.450;13.326;2024-01-30T19:15:09;15.03;;;7.93;;
3267;SDS011;1646;52.450;13.326;2024-01-30T19:20:07;19.67;;;9.10;;
3267;SDS011;1646;52.450;13.326;2024-01-30T19:25:10;18.33;;;9.70;;
3267;SDS011;1646;52.450;13.326;2024-01-30T19:30:09;17.50;;;9.80;;
3267;SDS011;1646;52.450;13.326;2024-01-30T19:35:08;18.63;;;9.10;;
3267;SDS011;1646;52.450;13.326;2024-01-30T19:40:06;20.50;;;9.23;;
3267;SDS011;1646;52.450;13.326;2024-01-30T19:45:09;16.53;;;9.40;;
3267;SDS011;1646;52.450;13.326;2024-01-30T19:50:08;18.03;;;8.60;;
3267;SDS011;1646;52.450;13.326;2024-01-30T19:55:07;20.90;;;9.60;;
3267;SDS011;1646;52.450;13.326;2024-01-30T20:00:05;16.47;;;8.90;;
3267;SDS011;1646;52.450;13.326;2024-01-30T20:05:08;13.87;;;8.90;;
3267;SDS011;1646;52.450;13.326;2024-01-30T20:10:08;14.17;;;8.00;;
3267;SDS011;1646;52.450;13.326;2024-01-30T20:15:08;15.23;;;8.53;;
3267;SDS011;1646;52.450;13.326;2024-01-30T20:20:09;14.03;;;8.00;;
3267;SDS011;1646;52.450;13.326;2024-01-30T20:25:12;14.80;;;8.27;;
3267;SDS011;1646;52.450;13.326;2024-01-30T20:30:15;23.47;;;8.30;;
3267;SDS011;1646;52.450;13.326;2024-01-30T20:35:16;18.03;;;8.17;;
3267;SDS011;1646;52.450;13.326;2024-01-30T20:40:14;16.50;;;8.00;;
3267;SDS011;1646;52.450;13.326;2024-01-30T20:45:13;14.83;;;8.27;;
3267;SDS011;1646;52.450;13.326;2024-01-30T20:50:12;11.77;;;7.60;;
3267;SDS011;1646;52.450;13.326;2024-01-30T20:55:12;12.07;;;7.33;;
3267;SDS011;1646;52.450;13.326;2024-01-30T21:00:11;24.03;;;9.43;;
3267;SDS011;1646;52.450;13.326;2024-01-30T21:05:10;15.40;;;8.17;;
3267;SDS011;1646;52.450;13.326;2024-01-30T21:10:09;13.40;;;8.00;;
3267;SDS011;1646;52.450;13.326;2024-01-30T21:15:09;14.70;;;8.73;;
3267;SDS011;1646;52.450;13.326;2024-01-30T21:20:08;14.60;;;8.13;;
3267;SDS011;1646;52.450;13.326;2024-01-30T21:25:08;11.77;;;7.37;;
3267;SDS011;1646;52.450;13.326;2024-01-30T21:30:08;14.60;;;7.67;;
3267;SDS011;1646;52.450;13.326;2024-01-30T21:35:07;13.10;;;7.43;;
3267;SDS011;1646;52.450;13.326;2024-01-30T21:40:06;13.73;;;7.63;;
3267;SDS011;1646;52.450;13.326;2024-01-30T21:45:25;12.67;;;7.80;;
3267;SDS011;1646;52.450;13.326;2024-01-30T21:50:23;11.67;;;6.87;;
3267;SDS011;1646;52.450;13.326;2024-01-30T21:55:22;16.27;;;8.07;;
3267;SDS011;1646;52.450;13.326;2024-01-30T22:00:21;11.10;;;7.03;;
3267;SDS011;1646;52.450;13.326;2024-01-30T22:05:20;10.70;;;6.90;;
3267;SDS011;1646;52.450;13.326;2024-01-30T22:10:19;16.03;;;7.73;;
3267;SDS011;1646;52.450;13.326;2024-01-30T22:15:17;14.00;;;7.50;;
3267;SDS011;1646;52.450;13.326;2024-01-30T22:20:16;15.17;;;7.50;;
3267;SDS011;1646;52.450;13.326;2024-01-30T22:25:16;13.17;;;7.70;;
3267;SDS011;1646;52.450;13.326;2024-01-30T22:30:14;10.90;;;7.70;;
3267;SDS011;1646;52.450;13.326;2024-01-30T22:35:13;20.93;;;8.17;;
3267;SDS011;1646;52.450;13.326;2024-01-30T22:40:11;13.87;;;7.97;;
3267;SDS011;1646;52.450;13.326;2024-01-30T22:45:11;12.67;;;7.87;;
3267;SDS011;1646;52.450;13.326;2024-01-30T22:50:10;16.23;;;8.40;;
3267;SDS011;1646;52.450;13.326;2024-01-30T22:55:08;15.53;;;8.60;;
3267;SDS011;1646;52.450;13.326;2024-01-30T23:00:07;15.60;;;8.07;;
3267;SDS011;1646;52.450;13.326;2024-01-30T23:05:12;16.37;;;9.13;;
3267;SDS011;1646;52.450;13.326;2024-01-30T23:10:11;15.17;;;8.90;;
3267;SDS011;1646;52.450;13.326;2024-01-30T23:15:09;14.40;;;8.40;;
3267;SDS011;1646;52.450;13.326;2024-01-30T23:20:08;14.70;;;8.73;;
3267;SDS011;1646;52.450;13.326;2024-01-30T23:25:10;13.27;;;8.80;;
3267;SDS011;1646;52.450;13.326;2024-01-30T23:30:08;13.63;;;8.20;;
3267;SDS011;1646;52.450;13.326;2024-01-30T23:35:07;20.17;;;9.10;;
3267;SDS011;1646;52.450;13.326;2024-01-30T23:40:11;15.40;;;9.03;;
3267;SDS011;1646;52.450;13.326;2024-01-30T23:45:10;12.63;;;8.10;;
3267;SDS011;1646;52.450;13.326;2024-01-30T23:50:09;16.33;;;8.50;;
3267;SDS011;1646;52.450;13.326;2024-01-30T23:55:07;14.60;;;8.77;;
